Time;durP1;ratioP1;P1;durP2;ratioP2;P2;SDS_P1;SDS_P2;PMS_P1;PMS_P2;Temp;Humidity;BMP_temperature;BMP_pressure;BME280_temperature;BME280_humidity;BME280_pressure;Samples;Min_cycle;Max_cycle;Signal;HPM_P1;HPM_P2
2022/11/18 00:01:11;;;;;;;28.10;13.48;;;;;;;11.60;64.95;97226.00;4489967;31;20123;-84
2022/11/18 00:03:36;;;;;;;;;;;;;;;11.69;64.61;97221.75;4492148;31;20165;-84
2022/11/18 00:06:02;;;;;;;26.65;12.57;;;;;;;11.74;64.37;97227.50;4496344;31;19980;-84
2022/11/18 00:08:28;;;;;;;29.67;14.05;;;;;;;11.53;64.59;97224.00;4487160;31;20084;-84
2022/11/18 00:10:53;;;;;;;30.08;13.50;;;;;;;11.66;64.41;97223.81;4486295;31;20100;-84
2022/11/18 00:16:06;;;;;;;27.65;13.02;;;;;;;11.54;64.58;97221.25;4487403;31;20146;-83
2022/11/18 00:18:32;;;;;;;30.00;14.18;;;;;;;11.49;64.66;97217.31;4481556;31;20114;-84
2022/11/18 00:21:15;;;;;;;27.27;13.15;;;;;;;11.41;64.83;97223.22;4462165;31;20132;-85
2022/11/18 00:23:41;;;;;;;26.95;12.35;;;;;;;11.36;65.00;97220.97;4496385;31;20126;-84
2022/11/18 00:26:15;;;;;;;27.75;13.05;;;;;;;11.41;64.79;97225.84;4502042;31;20404;-84
2022/11/18 00:28:41;;;;;;;27.70;13.68;;;;;;;11.41;64.80;97226.72;4502739;31;20462;-84
2022/11/18 00:31:09;;;;;;;28.73;13.13;;;;;;;11.39;64.81;97219.87;4503220;31;20118;-84
2022/11/18 00:33:38;;;;;;;28.98;13.98;;;;;;;11.05;66.21;97220.03;4503200;31;20104;-83
2022/11/18 00:36:05;;;;;;;32.90;14.95;;;;;;;11.05;65.85;97211.28;4502232;31;20117;-84
2022/11/18 00:38:30;;;;;;;31.02;14.18;;;;;;;10.91;66.87;97209.75;4503332;31;20079;-85
2022/11/18 00:41:10;;;;;;;31.33;14.52;;;;;;;10.96;66.62;97207.59;4503325;31;20118;-85
2022/11/18 00:43:36;;;;;;;27.23;14.38;;;;;;;10.93;66.67;97207.84;4489166;31;20108;-83
2022/11/18 00:46:02;;;;;;;28.62;14.10;;;;;;;10.92;66.55;97203.53;4488863;31;20092;-85
2022/11/18 00:48:28;;;;;;;27.23;12.90;;;;;;;10.99;66.21;97194.16;4503498;31;20087;-85
2022/11/18 00:50:55;;;;;;;29.08;13.57;;;;;;;11.11;65.73;97189.72;4488905;31;20103;-85
2022/11/18 00:53:22;;;;;;;27.83;12.93;;;;;;;11.14;65.55;97185.00;4488695;31;20134;-84
2022/11/18 00:55:48;;;;;;;26.25;13.05;;;;;;;11.17;65.39;97194.47;4488921;31;20371;-84
2022/11/18 00:58:14;;;;;;;27.10;12.82;;;;;;;11.22;65.11;97192.28;4503172;31;20120;-84
2022/11/18 01:00:43;;;;;;;28.27;14.52;;;;;;;11.23;65.03;97188.69;4503171;31;20132;-84
2022/11/18 01:03:10;;;;;;;30.85;14.23;;;;;;;10.91;66.33;97192.16;4488965;31;20509;-84
2022/11/18 01:05:36;;;;;;;30.55;13.57;;;;;;;11.12;65.78;97199.28;4503049;31;20760;-84
2022/11/18 01:08:01;;;;;;;28.40;13.05;;;;;;;11.16;65.57;97193.63;4503154;31;20395;-85
2022/11/18 01:10:27;;;;;;;28.27;13.38;;;;;;;11.11;65.68;97195.81;4503246;31;20096;-85
2022/11/18 01:15:38;;;;;;;24.95;12.43;;;;;;;11.06;65.46;97190.06;4490793;31;20147;-85
2022/11/18 01:18:04;;;;;;;27.85;13.65;;;;;;;11.15;65.24;97181.41;4502913;31;20128;-85
2022/11/18 01:20:31;;;;;;;28.98;13.10;;;;;;;11.19;65.14;97172.28;4488528;31;20187;-85
2022/11/18 01:22:56;;;;;;;27.60;13.43;;;;;;;11.23;65.04;97167.59;4488438;31;20137;-85
2022/11/18 01:25:22;;;;;;;28.05;13.48;;;;;;;11.24;65.00;97163.97;4502685;31;20085;-83
2022/11/18 01:27:47;;;;;;;29.15;13.20;;;;;;;11.25;64.99;97155.12;4502583;31;20411;-85
2022/11/18 01:30:15;;;;;;;27.65;13.27;;;;;;;11.24;65.20;97157.87;4502814;31;20119;-85
2022/11/18 01:32:41;;;;;;;;;;;;;;;11.26;65.17;97148.91;4503071;31;20390;-84
2022/11/18 01:35:06;;;;;;;27.08;12.43;;;;;;;11.34;64.82;97146.44;4502846;31;19964;-85
2022/11/18 01:37:32;;;;;;;27.48;12.77;;;;;;;11.26;64.78;97164.72;4488300;31;20080;-85
2022/11/18 01:39:57;;;;;;;27.58;12.88;;;;;;;11.30;64.66;97163.50;4502510;31;20088;-86
2022/11/18 01:42:23;;;;;;;27.60;13.18;;;;;;;11.31;64.55;97164.31;4488196;31;20096;-85
2022/11/18 01:44:54;;;;;;;26.45;12.63;;;;;;;11.30;64.60;97163.50;4502614;31;20076;-85
2022/11/18 01:47:20;;;;;;;26.55;12.65;;;;;;;11.36;64.43;97177.97;4502145;31;20088;-85
2022/11/18 01:49:46;;;;;;;26.87;13.02;;;;;;;11.13;64.92;97180.69;4502586;31;20440;-85
2022/11/18 01:52:12;;;;;;;26.27;13.30;;;;;;;10.88;65.53;97178.41;4488318;31;20088;-85
2022/11/18 01:54:40;;;;;;;29.27;13.05;;;;;;;10.81;65.58;97175.44;4488249;31;20080;-85
2022/11/18 01:57:16;;;;;;;26.58;13.70;;;;;;;11.05;64.79;97177.88;4488171;31;20106;-85
2022/11/18 01:59:43;;;;;;;28.45;13.43;;;;;;;11.14;64.36;97185.00;4475114;31;20127;-85
2022/11/18 02:02:11;;;;;;;27.33;12.50;;;;;;;10.77;65.30;97193.28;4502564;31;20138;-85
2022/11/18 02:04:40;;;;;;;27.37;12.82;;;;;;;10.72;65.80;97186.72;4502291;31;20785;-85
2022/11/18 02:07:06;;;;;;;26.37;12.27;;;;;;;10.88;65.25;97183.69;4488076;31;20419;-85
2022/11/18 02:09:31;;;;;;;28.67;13.38;;;;;;;10.92;65.06;97178.03;4488106;31;20116;-85
2022/11/18 02:11:57;;;;;;;26.65;12.68;;;;;;;11.02;64.69;97172.84;4502214;31;20144;-85
2022/11/18 02:14:28;;;;;;;25.02;12.32;;;;;;;11.10;64.31;97175.66;4502397;31;20103;-85
2022/11/18 02:17:26;;;;;;;28.10;13.30;;;;;;;11.11;64.10;97176.53;4487823;31;20084;-86
2022/11/18 02:20:28;;;;;;;26.23;12.52;;;;;;;11.11;63.90;97160.72;4437433;32;20113;-86
2022/11/18 02:23:05;;;;;;;28.30;13.43;;;;;;;11.08;63.93;97158.31;4437654;32;20112;-85
2022/11/18 02:25:51;;;;;;;29.17;13.93;;;;;;;11.04;64.00;97162.19;4437497;32;20472;-85
2022/11/18 02:28:38;;;;;;;29.40;13.88;;;;;;;10.98;64.43;97163.53;4424463;32;20173;-85
2022/11/18 02:31:42;;;;;;;28.12;13.43;;;;;;;11.01;64.38;97163.28;4437743;32;20094;-86
2022/11/18 02:34:13;;;;;;;27.55;13.65;;;;;;;10.91;64.63;97162.34;4391816;32;20119;-86
2022/11/18 02:36:53;;;;;;;28.70;12.55;;;;;;;10.95;64.55;97151.44;4391686;32;20094;-85
2022/11/18 02:39:22;;;;;;;29.33;13.98;;;;;;;11.00;64.61;97148.41;4391564;32;20083;-85
2022/11/18 02:41:48;;;;;;;28.58;13.10;;;;;;;11.05;64.78;97138.34;4391421;32;20154;-85
2022/11/18 02:44:16;;;;;;;28.70;13.23;;;;;;;11.11;64.90;97143.09;4378698;32;20094;-85
2022/11/18 02:46:45;;;;;;;29.27;12.90;;;;;;;11.20;64.79;97133.56;4391321;32;20512;-85
2022/11/18 02:49:21;;;;;;;28.10;12.63;;;;;;;11.25;64.77;97126.13;4391202;32;20112;-85
2022/11/18 02:51:48;;;;;;;28.05;12.77;;;;;;;11.31;64.43;97125.59;4378820;32;20094;-84
2022/11/18 02:54:14;;;;;;;28.12;13.95;;;;;;;11.21;64.70;97116.81;4391229;32;20165;-84
2022/11/18 02:56:40;;;;;;;31.90;15.05;;;;;;;11.42;64.18;97119.44;4420929;32;20090;-85
2022/11/18 02:59:06;;;;;;;30.12;14.15;;;;;;;11.46;64.21;97120.03;4437391;32;20081;-84
2022/11/18 03:01:33;;;;;;;30.20;13.75;;;;;;;11.50;64.15;97113.50;4439057;32;20240;-85
2022/11/18 03:03:59;;;;;;;31.67;15.52;;;;;;;11.55;64.05;97108.66;4434087;31;20199;-85
2022/11/18 03:06:40;;;;;;;33.67;16.55;;;;;;;11.63;63.87;97113.28;4503771;31;20084;-85
2022/11/18 03:09:24;;;;;;;39.30;18.77;;;;;;;11.68;63.77;97111.91;4489547;31;20435;-87
2022/11/18 03:11:55;;;;;;;36.08;18.02;;;;;;;11.71;63.68;97116.12;4503812;31;20147;-87
2022/11/18 03:14:34;;;;;;;60.60;20.90;;;;;;;11.74;63.62;97113.19;4489612;31;20126;-87
2022/11/18 03:17:01;;;;;;;40.10;19.42;;;;;;;11.64;63.91;97112.34;4489358;31;20151;-87
2022/11/18 03:19:44;;;;;;;49.10;21.77;;;;;;;11.71;63.73;97111.66;4503795;31;20080;-86
2022/11/18 03:22:43;;;;;;;41.22;20.20;;;;;;;11.54;64.08;97117.56;4503776;31;20087;-84
2022/11/18 03:25:18;;;;;;;37.90;19.67;;;;;;;11.72;63.83;97120.41;4503640;31;20103;-83
2022/11/18 03:27:55;;;;;;;42.03;20.60;;;;;;;11.68;64.04;97125.13;4503531;31;20473;-84
2022/11/18 03:30:23;;;;;;;43.70;21.50;;;;;;;11.75;63.91;97126.28;4489292;31;20080;-84
2022/11/18 03:32:56;;;;;;;44.72;22.05;;;;;;;11.74;63.86;97124.62;4503654;31;20134;-84
2022/11/18 03:35:24;;;;;;;42.08;20.80;;;;;;;11.59;64.04;97124.12;4489349;31;20164;-84
2022/11/18 03:37:51;;;;;;;40.03;20.00;;;;;;;11.68;63.94;97132.19;4489147;31;20147;-84
2022/11/18 03:40:22;;;;;;;39.50;20.08;;;;;;;11.74;63.96;97126.41;4489219;31;20076;-84
2022/11/18 03:42:56;;;;;;;41.55;20.02;;;;;;;11.84;63.88;97129.06;4489276;31;20103;-84
2022/11/18 03:45:30;;;;;;;37.58;20.85;;;;;;;11.91;63.62;97133.72;4489139;31;20115;-83
2022/11/18 03:48:19;;;;;;;40.12;18.98;;;;;;;11.66;64.33;97134.97;4489306;31;20080;-82
2022/11/18 03:50:55;;;;;;;47.30;21.95;;;;;;;11.80;64.04;97133.78;4479297;31;20107;-83
2022/11/18 03:53:24;;;;;;;41.15;21.50;;;;;;;11.54;65.04;97139.47;4503944;31;20080;-85
2022/11/18 03:55:52;;;;;;;42.25;20.50;;;;;;;11.72;64.43;97133.59;4475869;31;20512;-82
2022/11/18 03:58:23;;;;;;;44.60;21.00;;;;;;;11.63;64.45;97135.25;4476446;31;20083;-82
2022/11/18 04:00:53;;;;;;;40.75;21.37;;;;;;;11.66;64.47;97134.97;4489364;31;20137;-84
2022/11/18 04:03:18;;;;;;;42.28;21.08;;;;;;;11.69;64.38;97134.72;4489137;31;20088;-82
2022/11/18 04:05:45;;;;;;;41.78;20.73;;;;;;;11.76;64.19;97127.94;4503295;31;20105;-82
2022/11/18 04:08:32;;;;;;;71.60;23.83;;;;;;;11.81;63.98;97131.00;4489000;31;20084;-82
2022/11/18 04:11:07;;;;;;;45.75;22.95;;;;;;;11.87;63.97;97126.19;4475676;31;20091;-82
2022/11/18 04:13:34;;;;;;;44.22;21.98;;;;;;;11.89;63.93;97116.31;4488967;31;20095;-80
2022/11/18 04:15:59;;;;;;;42.25;20.10;;;;;;;11.82;63.95;97102.84;4488999;31;20091;-81
2022/11/18 04:18:26;;;;;;;39.40;19.98;;;;;;;11.87;63.75;97095.34;4503279;31;20174;-82
2022/11/18 04:20:51;;;;;;;59.53;19.42;;;;;;;11.49;64.45;97094.22;4488952;31;20076;-83
2022/11/18 04:23:16;;;;;;;43.92;20.83;;;;;;;11.65;64.06;97091.09;4503439;31;20147;-81
2022/11/18 04:25:42;;;;;;;46.78;19.30;;;;;;;11.68;63.96;97082.91;4493815;31;20126;-80
2022/11/18 04:28:07;;;;;;;52.53;21.77;;;;;;;11.83;63.80;97087.84;4490055;31;20126;-80
2022/11/18 04:30:34;;;;;;;49.92;20.58;;;;;;;11.90;63.65;97075.78;4496309;31;20116;-80
2022/11/18 04:32:59;;;;;;;60.83;22.62;;;;;;;11.84;63.70;97071.88;4482025;31;20139;-79
2022/11/18 04:35:26;;;;;;;92.78;23.73;;;;;;;11.90;63.64;97073.16;4476188;32;20108;-81
2022/11/18 04:37:51;;;;;;;185.43;29.12;;;;;;;11.89;63.80;97063.56;4474698;31;20080;-80
2022/11/18 04:40:17;;;;;;;91.05;22.08;;;;;;;11.63;64.54;97061.38;4497408;31;20099;-83
2022/11/18 04:42:42;;;;;;;166.82;25.45;;;;;;;11.78;64.33;97067.13;4494514;31;20126;-83
2022/11/18 04:45:08;;;;;;;47.05;20.90;;;;;;;11.25;65.72;97075.22;4492894;31;20371;-81
2022/11/18 04:47:34;;;;;;;48.08;20.77;;;;;;;11.71;64.91;97077.38;4475533;31;20107;-82
2022/11/18 04:49:59;;;;;;;61.60;23.40;;;;;;;11.80;64.66;97081.87;4499262;31;20408;-83
2022/11/18 04:52:24;;;;;;;69.70;24.02;;;;;;;11.87;64.67;97079.50;4487941;31;20122;-82
2022/11/18 04:54:50;;;;;;;44.28;20.85;;;;;;;11.87;64.63;97083.97;4494530;31;20087;-82
2022/11/18 04:57:15;;;;;;;45.35;21.80;;;;;;;11.89;64.67;97101.34;4487115;31;20364;-81
2022/11/18 04:59:41;;;;;;;46.42;21.62;;;;;;;11.93;64.69;97104.56;4484955;31;20649;-82
2022/11/18 05:02:06;;;;;;;49.08;23.02;;;;;;;11.94;64.67;97109.72;4484713;32;20353;-82
2022/11/18 05:04:33;;;;;;;61.90;21.98;;;;;;;11.74;65.25;97108.78;4478027;31;20144;-83
2022/11/18 05:07:00;;;;;;;50.50;22.55;;;;;;;11.86;64.90;97095.47;4479088;32;20076;-81
2022/11/18 05:09:26;;;;;;;51.20;22.80;;;;;;;11.90;64.76;97100.41;4498920;31;20159;-80
2022/11/18 05:14:36;;;;;;;60.92;23.52;;;;;;;12.00;64.66;97089.87;4486199;32;20477;-80
2022/11/18 05:17:03;;;;;;;55.63;23.10;;;;;;;11.92;64.83;97084.44;4495160;31;20120;-81
2022/11/18 05:19:29;;;;;;;66.60;22.20;;;;;;;12.00;64.72;97076.69;4484966;31;20080;-79
2022/11/18 05:21:55;;;;;;;54.90;21.73;;;;;;;11.85;65.05;97070.91;4485608;31;20401;-80
2022/11/18 05:24:22;;;;;;;83.95;25.00;;;;;;;11.95;64.69;97076.25;4491637;31;20088;-81
2022/11/18 05:26:48;;;;;;;69.40;24.23;;;;;;;11.85;64.98;97075.34;4466102;32;20110;-79
2022/11/18 05:29:14;;;;;;;106.45;24.80;;;;;;;11.90;64.90;97079.28;4482927;31;20083;-79
2022/11/18 05:31:39;;;;;;;125.03;26.10;;;;;;;11.94;64.93;97085.12;4488682;31;20120;-80
2022/11/18 05:34:04;;;;;;;55.97;22.23;;;;;;;11.92;64.91;97087.09;4498898;31;20110;-81
2022/11/18 05:36:30;;;;;;;101.85;25.23;;;;;;;11.90;64.98;97073.16;4487030;31;20096;-81
2022/11/18 05:38:59;;;;;;;68.43;23.23;;;;;;;11.92;65.04;97069.44;4486786;31;20076;-80
2022/11/18 05:44:08;;;;;;;53.95;22.92;;;;;;;11.96;65.13;97088.47;4486924;32;20580;-77
2022/11/18 05:46:34;;;;;;;62.25;23.85;;;;;;;11.92;65.26;97066.78;4485473;32;20092;-77
2022/11/18 05:48:59;;;;;;;89.82;25.58;;;;;;;11.92;65.41;97053.59;4485751;32;20077;-78
2022/11/18 05:51:24;;;;;;;76.70;23.98;;;;;;;11.96;65.20;97054.16;4486718;31;20115;-78
2022/11/18 05:53:51;;;;;;;79.70;24.90;;;;;;;11.93;65.35;97065.81;4486801;31;20145;-78
2022/11/18 05:56:29;;;;;;;81.07;24.75;;;;;;;11.90;65.49;97079.28;4486886;31;20076;-77
2022/11/18 05:58:54;;;;;;;73.30;25.27;;;;;;;11.95;65.58;97081.50;4486773;31;20404;-78
2022/11/18 06:01:31;;;;;;;84.65;26.00;;;;;;;11.98;65.65;97079.44;4492724;31;20138;-78
2022/11/18 06:03:58;;;;;;;63.30;24.23;;;;;;;11.97;65.80;97072.47;4488260;31;20523;-76
2022/11/18 06:06:23;;;;;;;70.03;23.95;;;;;;;11.97;65.78;97080.41;4502473;31;20363;-78
2022/11/18 06:08:56;;;;;;;64.60;24.05;;;;;;;12.01;65.71;97075.69;4501428;31;20103;-77
2022/11/18 06:11:22;;;;;;;75.78;25.23;;;;;;;12.00;65.73;97087.25;4479253;31;20108;-78
2022/11/18 06:13:59;;;;;;;61.53;25.00;;;;;;;11.97;65.92;97090.13;4492388;31;20123;-78
2022/11/18 06:16:27;;;;;;;73.28;26.52;;;;;;;12.05;65.80;97079.72;4484563;32;20084;-80
2022/11/18 06:18:52;;;;;;;;;;;;;;;12.06;65.72;97078.78;4472348;32;20140;-80
2022/11/18 06:21:17;;;;;;;76.10;24.77;;;;;;;12.11;65.69;97073.94;4485713;32;20006;-79
2022/11/18 06:23:43;;;;;;;56.42;21.30;;;;;;;12.08;65.69;97078.66;4484787;32;20136;-80
2022/11/18 06:26:10;;;;;;;48.75;21.12;;;;;;;12.09;65.58;97072.38;4471860;32;20460;-80
2022/11/18 06:28:36;;;;;;;49.75;21.33;;;;;;;12.06;65.67;97072.66;4486079;32;20076;-80
2022/11/18 06:31:01;;;;;;;52.15;20.40;;;;;;;12.10;65.53;97076.69;4472144;32;20093;-79
2022/11/18 06:33:27;;;;;;;71.95;22.62;;;;;;;12.13;65.36;97066.72;4485968;32;20144;-80
2022/11/18 06:35:52;;;;;;;47.60;21.02;;;;;;;12.09;65.56;97069.75;4488102;32;20446;-79
2022/11/18 06:38:17;;;;;;;53.25;20.62;;;;;;;12.07;65.67;97077.81;4488199;32;20071;-78
2022/11/18 06:40:43;;;;;;;53.10;21.30;;;;;;;12.12;65.61;97070.31;4473872;32;20163;-79
2022/11/18 06:48:44;;;;;;;46.80;18.75;;;;;;;12.15;65.59;97062.12;4488340;32;20137;-79
2022/11/18 06:51:09;;;;;;;38.47;18.87;;;;;;;12.14;65.60;97068.38;4488056;32;20089;-78
2022/11/18 06:53:35;;;;;;;39.80;18.42;;;;;;;12.22;65.27;97069.50;4474071;32;20088;-78
2022/11/18 06:56:07;;;;;;;40.95;18.55;;;;;;;12.19;65.44;97065.34;4488214;32;20072;-78
2022/11/18 06:58:33;;;;;;;41.22;18.95;;;;;;;12.21;65.38;97079.22;4488038;32;20466;-79
2022/11/18 07:01:10;;;;;;;43.30;18.30;;;;;;;12.22;65.21;97072.97;4487946;32;20081;-78
2022/11/18 07:03:35;;;;;;;38.72;18.42;;;;;;;12.22;65.20;97065.03;4474095;32;20092;-79
2022/11/18 07:06:00;;;;;;;38.25;18.58;;;;;;;12.24;65.15;97064.91;4487723;32;20087;-79
2022/11/18 07:08:26;;;;;;;34.70;16.73;;;;;;;12.28;65.00;97066.31;4488059;32;20103;-79
2022/11/18 07:10:52;;;;;;;35.65;17.23;;;;;;;12.29;64.83;97066.19;4473533;32;20150;-79
2022/11/18 07:13:17;;;;;;;35.53;16.17;;;;;;;12.31;64.72;97072.16;4473654;32;20303;-80
2022/11/18 07:15:43;;;;;;;37.72;16.17;;;;;;;12.29;64.78;97070.62;4473847;32;20113;-79
2022/11/18 07:18:08;;;;;;;38.05;15.85;;;;;;;12.31;64.66;97068.69;4488234;32;20136;-79
2022/11/18 07:20:34;;;;;;;40.58;17.42;;;;;;;12.31;64.73;97072.16;4487931;32;20128;-79
2022/11/18 07:22:59;;;;;;;37.70;16.58;;;;;;;12.31;64.68;97061.59;4487967;32;20124;-79
2022/11/18 07:25:24;;;;;;;36.05;16.65;;;;;;;12.32;64.52;97060.63;4487765;32;20368;-80
2022/11/18 07:27:50;;;;;;;38.45;17.45;;;;;;;12.34;64.54;97063.12;4473435;32;20134;-79
2022/11/18 07:30:15;;;;;;;38.95;16.35;;;;;;;12.38;64.53;97062.72;4487919;32;20093;-82
2022/11/18 07:32:41;;;;;;;35.45;16.33;;;;;;;12.35;64.53;97059.53;4473427;32;20084;-80
2022/11/18 07:35:07;;;;;;;38.30;15.85;;;;;;;12.36;64.46;97062.03;4487780;32;20099;-80
2022/11/18 07:37:32;;;;;;;34.50;13.98;;;;;;;12.42;64.46;97055.38;4487654;32;20097;-80
2022/11/18 07:39:58;;;;;;;30.95;15.00;;;;;;;12.38;64.49;97064.50;4487674;32;20476;-79
2022/11/18 07:42:24;;;;;;;33.88;15.70;;;;;;;12.41;64.33;97047.56;4487858;32;20113;-79
2022/11/18 07:44:49;;;;;;;36.42;15.43;;;;;;;12.48;64.10;97043.41;4487188;32;20119;-79
2022/11/18 07:47:15;;;;;;;36.63;15.15;;;;;;;12.47;64.03;97036.44;4487832;32;20321;-79
2022/11/18 07:49:40;;;;;;;33.40;14.40;;;;;;;12.48;63.96;97028.41;4473292;32;20119;-79
2022/11/18 07:52:06;;;;;;;36.38;14.68;;;;;;;12.47;63.75;97015.31;4487517;32;20125;-78
2022/11/18 07:54:31;;;;;;;38.35;16.17;;;;;;;12.48;63.63;97017.00;4473504;32;20348;-78
2022/11/18 07:56:56;;;;;;;35.55;15.70;;;;;;;12.47;63.70;97020.59;4487609;32;20099;-78
2022/11/18 07:59:22;;;;;;;33.22;14.43;;;;;;;12.55;63.65;97020.72;4487315;32;20097;-78
2022/11/18 08:01:47;;;;;;;37.13;15.55;;;;;;;12.58;63.62;97018.66;4473409;31;20162;-77
2022/11/18 08:04:13;;;;;;;33.28;14.07;;;;;;;12.56;63.59;97010.03;4500846;31;20120;-79
2022/11/18 08:06:39;;;;;;;34.22;14.07;;;;;;;12.54;63.64;97006.72;4503335;31;20084;-78
2022/11/18 08:09:06;;;;;;;36.88;15.00;;;;;;;12.58;63.68;97015.19;4503036;31;20089;-79
2022/11/18 08:11:31;;;;;;;35.22;14.27;;;;;;;12.64;63.42;97027.00;4488975;31;20549;-79
2022/11/18 08:13:56;;;;;;;32.85;13.48;;;;;;;12.67;63.10;97030.22;4502835;31;20088;-80
2022/11/18 08:16:23;;;;;;;35.47;13.75;;;;;;;12.61;63.19;97032.56;4501474;31;20084;-80
2022/11/18 08:18:49;;;;;;;35.53;14.32;;;;;;;12.64;62.79;97032.28;4487831;31;20459;-84
2022/11/18 08:21:17;;;;;;;37.85;15.52;;;;;;;12.59;63.06;97024.75;4502978;31;20133;-82
2022/11/18 08:23:42;;;;;;;33.10;15.27;;;;;;;12.52;63.26;97034.25;4488792;31;20550;-79
2022/11/18 08:26:13;;;;;;;35.80;13.95;;;;;;;12.48;63.34;97030.22;4488590;31;20133;-80
2022/11/18 08:28:40;;;;;;;40.03;15.35;;;;;;;12.41;63.49;97026.44;4502878;31;20552;-81
2022/11/18 08:31:10;;;;;;;35.75;14.65;;;;;;;11.43;66.17;97044.63;4503438;31;20104;-77
2022/11/18 08:33:35;;;;;;;38.83;15.85;;;;;;;11.81;65.79;97040.47;4488976;31;20080;-81
2022/11/18 08:36:11;;;;;;;37.45;14.70;;;;;;;12.16;64.62;97029.47;4503252;31;20068;-79
2022/11/18 08:38:37;;;;;;;37.05;14.68;;;;;;;12.32;64.16;97009.62;4488921;31;20091;-80
2022/11/18 08:41:04;;;;;;;37.08;14.75;;;;;;;12.32;64.35;97006.97;4503050;31;20136;-82
2022/11/18 08:43:30;;;;;;;34.03;15.02;;;;;;;12.31;64.45;97006.16;4485570;32;20084;-81
2022/11/18 08:45:55;;;;;;;43.17;14.70;;;;;;;12.31;64.56;97002.69;4495404;31;20416;-80
2022/11/18 08:48:20;;;;;;;37.63;14.95;;;;;;;12.31;64.51;97000.88;4493632;31;20144;-82
2022/11/18 08:50:46;;;;;;;33.90;14.10;;;;;;;12.38;64.26;97006.41;4493817;31;20486;-81
2022/11/18 08:53:11;;;;;;;34.45;14.65;;;;;;;12.42;64.15;96999.91;4494675;31;20100;-80
2022/11/18 08:55:37;;;;;;;35.88;13.10;;;;;;;12.46;63.98;96996.00;4494341;31;20441;-81
2022/11/18 08:58:02;;;;;;;36.28;12.70;;;;;;;12.46;63.84;96987.22;4493108;31;20085;-82
2022/11/18 09:00:27;;;;;;;35.25;13.27;;;;;;;12.45;63.80;96982.94;4486939;32;20096;-80
2022/11/18 09:02:53;;;;;;;33.75;11.98;;;;;;;12.44;63.86;96987.41;4487217;32;20076;-79
2022/11/18 09:05:18;;;;;;;32.78;11.55;;;;;;;12.35;63.81;96993.50;4487045;32;20497;-79
2022/11/18 09:07:44;;;;;;;30.42;11.55;;;;;;;12.39;63.76;96990.44;4472932;32;20105;-80
2022/11/18 09:10:09;;;;;;;26.27;10.70;;;;;;;12.13;64.10;96995.44;4486995;32;20492;-84
2022/11/18 09:12:34;;;;;;;27.05;11.15;;;;;;;12.24;63.88;96997.09;4479619;32;20511;-83
2022/11/18 09:15:00;;;;;;;28.05;11.57;;;;;;;12.33;63.93;96998.09;4487197;31;20123;-83
2022/11/18 09:17:25;;;;;;;25.98;10.18;;;;;;;12.40;63.93;97004.50;4484398;32;20104;-83
2022/11/18 09:19:50;;;;;;;27.10;10.75;;;;;;;12.43;63.80;97000.72;4487206;31;20367;-83
2022/11/18 09:22:16;;;;;;;26.45;10.07;;;;;;;12.49;63.76;96997.53;4487060;31;20076;-83
2022/11/18 09:24:42;;;;;;;27.08;9.95;;;;;;;12.53;63.67;96991.00;4485771;32;20345;-83
2022/11/18 09:27:07;;;;;;;27.13;10.52;;;;;;;12.58;63.56;96986.12;4485775;32;20166;-83
2022/11/18 09:29:33;;;;;;;25.62;10.32;;;;;;;12.56;63.38;96990.72;4486706;31;20092;-83
2022/11/18 09:32:01;;;;;;;27.17;10.90;;;;;;;12.16;64.65;96991.69;4485873;32;20118;-83
2022/11/18 09:34:27;;;;;;;25.15;10.10;;;;;;;12.35;64.10;96982.94;4487096;31;20461;-83
2022/11/18 09:36:55;;;;;;;23.90;10.38;;;;;;;12.43;63.97;96979.59;4486943;31;20441;-83
2022/11/18 09:39:22;;;;;;;25.83;10.35;;;;;;;12.45;63.87;96975.00;4486916;31;20112;-83
2022/11/18 09:41:58;;;;;;;27.07;10.47;;;;;;;12.52;63.69;96969.03;4486889;31;20603;-84
2022/11/18 09:44:59;;;;;;;25.25;11.43;;;;;;;12.41;63.76;96966.53;4486924;31;20077;-84
2022/11/18 09:47:32;;;;;;;29.23;10.88;;;;;;;12.51;63.60;96970.00;4437901;32;20109;-84
2022/11/18 09:50:00;;;;;;;27.17;11.75;;;;;;;12.48;63.57;96969.47;4424933;32;20140;-83
2022/11/18 09:52:31;;;;;;;27.42;11.80;;;;;;;12.26;64.13;96973.22;4425024;32;20106;-84
2022/11/18 09:54:58;;;;;;;28.58;11.12;;;;;;;12.26;64.08;96973.22;4425309;32;20115;-84
2022/11/18 09:57:25;;;;;;;26.05;10.38;;;;;;;12.28;64.02;96960.69;4425030;32;20129;-83
2022/11/18 09:59:52;;;;;;;28.12;10.90;;;;;;;12.17;64.12;96946.69;4437877;32;20522;-84
2022/11/18 10:02:42;;;;;;;24.77;10.63;;;;;;;11.98;64.89;96951.94;4425000;32;20093;-84
2022/11/18 10:05:21;;;;;;;31.75;11.98;;;;;;;11.97;64.93;96942.34;4437729;32;20543;-84
2022/11/18 10:07:46;;;;;;;;;;;;;;;12.15;64.56;96937.25;4437975;32;20496;-84
2022/11/18 10:10:16;;;;;;;26.10;10.70;;;;;;;11.70;65.68;96937.72;4437788;32;20001;-84
2022/11/18 10:12:48;;;;;;;28.05;11.75;;;;;;;12.05;64.85;96936.37;4424794;32;20116;-84
2022/11/18 10:15:23;;;;;;;72.53;14.10;;;;;;;12.08;64.85;96928.19;4424916;32;20516;-83
2022/11/18 10:18:06;;;;;;;30.37;12.25;;;;;;;11.84;65.57;96925.91;4437640;32;20181;-83
2022/11/18 10:20:56;;;;;;;30.83;12.90;;;;;;;12.04;64.88;96926.81;4424752;32;20097;-83
2022/11/18 10:23:27;;;;;;;32.20;13.38;;;;;;;11.80;65.62;96920.06;4462690;32;20084;-84
2022/11/18 10:25:53;;;;;;;34.05;13.43;;;;;;;11.98;65.11;96915.00;4471974;32;20076;-84
2022/11/18 10:28:24;;;;;;;32.83;13.35;;;;;;;11.99;65.05;96916.66;4485308;32;20120;-83
2022/11/18 10:30:50;;;;;;;29.90;13.52;;;;;;;11.92;65.34;96915.56;4486728;31;20080;-84
2022/11/18 10:33:18;;;;;;;32.90;13.35;;;;;;;11.55;66.59;96914.37;4486590;31;20085;-84
2022/11/18 10:35:43;;;;;;;;;;;;;;;11.85;65.80;96915.22;4486618;31;20106;-83
2022/11/18 10:38:11;;;;;;;33.65;13.82;;;;;;;11.98;65.40;96905.28;4486287;32;19984;-83
2022/11/18 10:40:43;;;;;;;35.70;13.40;;;;;;;12.06;65.11;96907.22;4486238;32;20122;-84
2022/11/18 10:43:09;;;;;;;34.88;14.90;;;;;;;12.03;65.20;96906.66;4485047;32;20155;-83
2022/11/18 10:45:35;;;;;;;32.13;13.88;;;;;;;12.07;64.97;96906.25;4484872;32;20103;-83
2022/11/18 10:48:10;;;;;;;46.55;15.30;;;;;;;12.04;64.97;96906.53;4485969;31;20128;-83
2022/11/18 10:50:49;;;;;;;34.95;13.82;;;;;;;12.05;64.98;96902.06;4485028;32;20490;-84
2022/11/18 10:53:36;;;;;;;31.37;12.93;;;;;;;12.11;64.68;96905.00;4471662;32;20156;-84
2022/11/18 10:56:10;;;;;;;31.87;13.50;;;;;;;12.17;64.52;96899.16;4484766;32;20110;-83
2022/11/18 10:58:40;;;;;;;37.15;14.45;;;;;;;12.16;64.64;96892.19;4484682;32;20131;-83
2022/11/18 11:01:07;;;;;;;80.47;15.90;;;;;;;12.22;64.36;96901.38;4484809;32;20108;-83
2022/11/18 11:03:37;;;;;;;34.17;14.67;;;;;;;12.07;64.55;96910.69;4484781;32;20152;-84
2022/11/18 11:06:28;;;;;;;31.70;14.23;;;;;;;12.15;64.19;96902.94;4484641;32;20080;-84
2022/11/18 11:08:55;;;;;;;41.40;14.95;;;;;;;12.13;64.26;96892.50;4485871;31;20119;-83
2022/11/18 11:11:32;;;;;;;31.67;13.98;;;;;;;12.12;64.04;96900.56;4485783;31;20088;-84
2022/11/18 11:14:05;;;;;;;32.80;12.75;;;;;;;11.76;65.16;96900.22;4484547;32;20144;-82
2022/11/18 11:16:36;;;;;;;31.40;12.88;;;;;;;11.87;64.88;96901.91;4485756;31;20106;-82
2022/11/18 11:19:02;;;;;;;45.72;13.82;;;;;;;11.93;64.82;96910.12;4484633;32;20451;-82
2022/11/18 11:21:27;;;;;;;65.32;14.68;;;;;;;11.11;67.18;96916.47;4486295;32;20096;-82
2022/11/18 11:23:53;;;;;;;38.38;14.07;;;;;;;11.50;65.73;96921.03;4487812;31;20157;-82
2022/11/18 11:26:44;;;;;;;29.48;12.45;;;;;;;11.01;67.69;96926.97;4487834;31;20095;-82
2022/11/18 11:29:40;;;;;;;25.90;11.12;;;;;;;11.20;66.99;96915.66;4487747;31;20402;-82
2022/11/18 11:32:37;;;;;;;29.12;12.48;;;;;;;10.94;67.70;96922.34;4488261;32;20495;-82
2022/11/18 11:35:14;;;;;;;27.92;11.57;;;;;;;11.01;67.69;96929.59;4488130;32;20088;-82
2022/11/18 11:37:42;;;;;;;40.90;12.85;;;;;;;11.14;67.46;96934.63;4487902;31;20450;-82
2022/11/18 11:40:39;;;;;;;29.75;12.32;;;;;;;11.28;66.90;96922.91;4487822;31;20115;-82
2022/11/18 11:43:20;;;;;;;25.23;10.82;;;;;;;11.41;66.72;96927.91;4486493;32;20108;-82
2022/11/18 11:46:04;;;;;;;122.47;15.27;;;;;;;11.56;66.33;96912.56;4487787;31;20148;-82